Time;durP1;ratioP1;P1;durP2;ratioP2;P2;SDS_P1;SDS_P2;PMS_P1;PMS_P2;Temp;Humidity;BMP_temperature;BMP_pressure;BME280_temperature;BME280_humidity;BME280_pressure;Samples;Min_cycle;Max_cycle;Signal;HPM_P1;HPM_P2
2022/08/02 00:02:08;;;;;;;282.75;255.52;;;16.90;81.20;;;;;;4993216;28;20127;-74
2022/08/02 00:04:35;;;;;;;274.95;248.10;;;16.90;81.40;;;;;;4992429;28;20510;-74
2022/08/02 00:07:01;;;;;;;278.73;251.82;;;16.90;81.80;;;;;;4995201;28;20077;-74
2022/08/02 00:09:30;;;;;;;267.38;241.20;;;16.80;81.90;;;;;;4994105;28;20114;-74
2022/08/02 00:11:57;;;;;;;259.27;233.50;;;16.80;81.90;;;;;;4993874;28;20460;-74
2022/08/02 00:14:24;;;;;;;262.88;236.93;;;16.80;82.10;;;;;;4994220;28;20576;-74
2022/08/02 00:16:51;;;;;;;254.07;228.68;;;16.80;82.30;;;;;;4980120;28;20509;-75
2022/08/02 00:19:18;;;;;;;268.77;241.93;;;16.70;82.40;;;;;;4975318;28;20449;-74
2022/08/02 00:21:45;;;;;;;260.33;234.48;;;16.70;82.60;;;;;;4975643;28;20055;-73
2022/08/02 00:24:12;;;;;;;258.50;233.00;;;16.70;82.90;;;;;;4974602;28;20130;-74
2022/08/02 00:26:40;;;;;;;256.33;230.82;;;16.70;83.00;;;;;;4974772;28;20052;-73
2022/08/02 00:29:07;;;;;;;260.75;234.82;;;16.60;83.30;;;;;;4990668;28;20062;-73
2022/08/02 00:31:34;;;;;;;258.10;232.63;;;16.60;83.60;;;;;;4974207;28;20146;-73
2022/08/02 00:34:01;;;;;;;255.80;230.18;;;16.60;84.20;;;;;;4974400;28;20051;-73
2022/08/02 00:36:28;;;;;;;262.80;236.93;;;16.50;84.60;;;;;;4974208;28;20062;-73
2022/08/02 00:38:55;;;;;;;261.38;235.88;;;16.50;84.80;;;;;;4975333;28;20057;-74
2022/08/02 00:41:22;;;;;;;243.10;218.73;;;16.50;85.10;;;;;;4974272;28;20047;-73
2022/08/02 00:43:51;;;;;;;250.88;226.10;;;16.40;85.50;;;;;;4974057;28;20498;-74
2022/08/02 00:46:19;;;;;;;251.80;226.70;;;16.40;86.00;;;;;;4974272;28;20051;-73
2022/08/02 00:48:47;;;;;;;250.10;225.25;;;16.30;86.10;;;;;;4974490;28;20055;-73
2022/08/02 00:51:14;;;;;;;244.45;220.07;;;16.20;86.30;;;;;;4974445;28;20051;-73
2022/08/02 00:53:41;;;;;;;253.85;228.65;;;16.20;86.30;;;;;;4974048;28;20051;-74
2022/08/02 00:56:08;;;;;;;237.27;213.45;;;16.20;86.30;;;;;;4974063;28;20122;-73
2022/08/02 00:58:35;;;;;;;240.57;216.55;;;16.20;86.20;;;;;;4990261;28;20048;-73
2022/08/02 01:01:04;;;;;;;234.75;211.15;;;16.20;86.30;;;;;;4990658;28;20085;-74
2022/08/02 01:03:31;;;;;;;237.05;213.13;;;16.20;86.60;;;;;;4976461;28;20421;-73
2022/08/02 01:05:57;;;;;;;251.32;225.93;;;16.10;86.80;;;;;;4973858;28;20127;-73
2022/08/02 01:08:24;;;;;;;237.38;213.02;;;16.10;86.90;;;;;;4973423;28;20130;-73
2022/08/02 01:10:51;;;;;;;231.05;207.55;;;16.00;87.00;;;;;;4973807;28;20142;-73
2022/08/02 01:13:18;;;;;;;238.32;213.85;;;16.00;87.30;;;;;;4974869;28;20058;-73
2022/08/02 01:15:50;;;;;;;233.40;209.43;;;15.90;87.60;;;;;;4974562;28;20077;-73
2022/08/02 01:18:23;;;;;;;231.23;207.15;;;15.90;88.20;;;;;;4973403;28;20166;-74
2022/08/02 01:21:10;;;;;;;236.93;212.52;;;15.80;88.20;;;;;;4990041;28;20122;-73
2022/08/02 01:23:53;;;;;;;231.80;207.43;;;15.80;87.70;;;;;;4989481;28;20057;-73
2022/08/02 01:26:38;;;;;;;230.43;206.15;;;15.70;87.60;;;;;;4973379;28;20051;-73
2022/08/02 01:29:12;;;;;;;220.40;197.32;;;15.70;87.60;;;;;;4972854;28;20054;-74
2022/08/02 01:31:46;;;;;;;222.50;198.98;;;15.70;88.30;;;;;;4974415;28;20494;-73
2022/08/02 01:34:20;;;;;;;225.43;201.67;;;15.60;88.60;;;;;;4973168;28;20750;-73
2022/08/02 01:36:53;;;;;;;223.35;199.75;;;15.60;88.60;;;;;;4973197;28;20094;-73
2022/08/02 01:39:25;;;;;;;228.45;204.68;;;15.60;88.60;;;;;;4972666;28;20510;-73
2022/08/02 01:41:54;;;;;;;225.32;201.80;;;15.60;88.50;;;;;;4989087;28;20047;-73
2022/08/02 01:44:25;;;;;;;224.45;201.02;;;15.50;88.50;;;;;;4973012;28;20111;-73
2022/08/02 01:46:53;;;;;;;231.13;206.82;;;15.50;88.60;;;;;;4972865;28;20048;-73
2022/08/02 01:49:23;;;;;;;230.25;205.98;;;15.50;88.80;;;;;;4974133;28;20051;-73
2022/08/02 01:54:38;;;;;;;231.55;206.68;;;15.50;89.10;;;;;;4972374;28;20130;-74
2022/08/02 01:57:07;;;;;;;230.38;206.27;;;15.50;88.80;;;;;;4993281;28;20069;-73
2022/08/02 01:59:37;;;;;;;226.63;202.73;;;15.40;89.10;;;;;;4992456;28;20081;-73
2022/08/02 02:02:07;;;;;;;218.05;195.35;;;15.40;89.40;;;;;;4992402;28;20053;-73
2022/08/02 02:04:36;;;;;;;218.93;195.57;;;15.40;89.70;;;;;;4992369;28;20074;-73
2022/08/02 02:07:04;;;;;;;225.77;201.85;;;15.40;89.70;;;;;;4992302;28;20054;-73
2022/08/02 02:09:35;;;;;;;225.15;201.60;;;15.40;89.60;;;;;;4992783;28;20047;-73
2022/08/02 02:12:04;;;;;;;225.23;201.40;;;15.40;89.60;;;;;;4992398;28;20054;-73
2022/08/02 02:14:33;;;;;;;226.35;202.48;;;15.40;89.70;;;;;;4992743;28;20051;-73
2022/08/02 02:17:02;;;;;;;225.18;201.60;;;15.40;90.00;;;;;;4992250;28;20061;-73
2022/08/02 02:19:31;;;;;;;220.05;196.82;;;15.30;90.00;;;;;;4992209;28;20074;-73
2022/08/02 02:21:58;;;;;;;221.30;197.90;;;15.30;89.90;;;;;;4992458;28;20054;-74
2022/08/02 02:24:25;;;;;;;222.70;198.80;;;15.30;90.00;;;;;;4993736;28;20527;-73
2022/08/02 02:26:52;;;;;;;224.63;200.93;;;15.30;90.00;;;;;;4992445;28;20074;-74
2022/08/02 02:29:21;;;;;;;222.93;199.38;;;15.30;90.20;;;;;;4993708;28;20051;-74
2022/08/02 02:31:51;;;;;;;222.15;198.60;;;15.30;90.50;;;;;;4995617;28;20062;-73
2022/08/02 02:34:26;;;;;;;221.60;198.02;;;15.30;90.50;;;;;;4997020;28;20061;-74
2022/08/02 02:36:54;;;;;;;222.52;198.75;;;15.20;90.60;;;;;;4995519;28;20417;-73
2022/08/02 02:39:23;;;;;;;220.80;196.95;;;15.20;90.70;;;;;;4996586;28;20140;-73
2022/08/02 02:41:53;;;;;;;216.85;193.93;;;15.20;90.70;;;;;;4995610;28;20814;-73
2022/08/02 02:44:21;;;;;;;220.27;196.30;;;15.10;90.90;;;;;;4995470;28;20141;-73
2022/08/02 02:46:51;;;;;;;221.02;197.32;;;15.10;90.80;;;;;;4996624;28;20062;-73
2022/08/02 02:49:21;;;;;;;215.52;192.15;;;15.10;90.90;;;;;;4996808;28;20061;-74
2022/08/02 02:51:49;;;;;;;219.98;196.30;;;15.00;90.90;;;;;;4995389;28;20055;-73
2022/08/02 02:54:17;;;;;;;217.13;193.90;;;15.00;91.00;;;;;;4996719;28;20051;-73
2022/08/02 02:56:45;;;;;;;214.80;191.98;;;15.00;91.00;;;;;;4995343;28;20600;-73
2022/08/02 02:59:14;;;;;;;210.23;187.82;;;15.00;91.10;;;;;;4995414;28;20047;-73
2022/08/02 03:01:41;;;;;;;211.57;189.07;;;14.90;91.20;;;;;;4987851;28;20047;-73
2022/08/02 03:04:11;;;;;;;214.10;190.95;;;15.00;91.30;;;;;;4975611;28;20051;-74
2022/08/02 03:06:40;;;;;;;208.98;186.30;;;15.00;91.40;;;;;;4976890;28;20051;-73
2022/08/02 03:09:07;;;;;;;220.30;196.50;;;14.90;91.30;;;;;;4976635;28;20055;-73
2022/08/02 03:11:36;;;;;;;214.45;191.23;;;14.80;91.60;;;;;;4976188;28;20047;-73
2022/08/02 03:14:05;;;;;;;218.40;194.52;;;14.80;91.70;;;;;;4976763;28;20051;-73
2022/08/02 03:16:32;;;;;;;217.90;194.32;;;14.70;91.80;;;;;;4991906;28;20138;-73
2022/08/02 03:19:02;;;;;;;225.50;201.10;;;14.70;91.80;;;;;;4974947;28;20167;-74
2022/08/02 03:21:29;;;;;;;232.27;207.00;;;14.70;92.00;;;;;;4975070;28;20055;-73
2022/08/02 03:23:57;;;;;;;234.07;208.45;;;14.70;92.00;;;;;;4976539;28;20051;-73
2022/08/02 03:26:24;;;;;;;241.77;215.27;;;14.70;92.10;;;;;;4975128;28;20059;-73
2022/08/02 03:28:51;;;;;;;237.10;211.15;;;14.70;92.10;;;;;;4991271;28;20054;-73
2022/08/02 03:31:18;;;;;;;245.43;218.00;;;14.70;92.10;;;;;;4975192;28;20061;-73
2022/08/02 03:33:46;;;;;;;244.55;217.77;;;14.70;92.20;;;;;;4975211;28;20056;-73
2022/08/02 03:36:16;;;;;;;254.10;226.18;;;14.70;92.20;;;;;;4976072;28;20055;-73
2022/08/02 03:38:44;;;;;;;259.80;231.32;;;14.80;92.10;;;;;;4974481;28;20081;-73
2022/08/02 03:41:16;;;;;;;293.83;261.98;;;14.80;92.10;;;;;;4975267;28;20122;-73
2022/08/02 03:43:44;;;;;;;314.55;280.83;;;14.80;92.20;;;;;;4976305;28;20057;-74
2022/08/02 03:46:14;;;;;;;286.77;255.80;;;14.80;92.20;;;;;;4976468;28;20063;-74
2022/08/02 03:48:41;;;;;;;331.20;295.42;;;14.80;92.20;;;;;;4976187;28;20079;-73
2022/08/02 03:51:08;;;;;;;317.88;283.58;;;14.80;92.10;;;;;;4976092;28;20059;-73
2022/08/02 03:53:36;;;;;;;348.85;311.77;;;14.80;92.10;;;;;;4975247;28;20047;-73
2022/08/02 03:56:04;;;;;;;313.17;279.08;;;14.80;92.10;;;;;;4975181;28;20613;-73
2022/08/02 03:58:33;;;;;;;340.13;303.48;;;14.80;92.20;;;;;;4976168;28;20472;-73
2022/08/02 04:01:00;;;;;;;306.52;273.13;;;14.70;92.30;;;;;;4974818;28;20058;-73
2022/08/02 04:03:28;;;;;;;341.63;305.23;;;14.70;92.50;;;;;;4974667;28;20087;-73
2022/08/02 04:05:55;;;;;;;291.38;259.50;;;14.60;92.50;;;;;;4974943;28;20139;-73
2022/08/02 04:08:23;;;;;;;205.52;176.52;;;14.60;92.60;;;;;;4973935;28;20437;-73
2022/08/02 04:13:36;;;;;;;293.67;261.75;;;14.60;92.90;;;;;;4963906;28;20062;-73
2022/08/02 04:16:08;;;;;;;322.95;287.73;;;14.60;93.20;;;;;;4991322;28;20059;-73
2022/08/02 04:18:40;;;;;;;284.38;253.20;;;14.60;93.00;;;;;;4974463;28;20071;-73
2022/08/02 04:21:09;;;;;;;298.42;265.88;;;14.70;93.10;;;;;;4974349;28;20135;-74
2022/08/02 04:24:03;;;;;;;294.92;262.17;;;14.70;93.10;;;;;;4976439;28;20058;-73
2022/08/02 04:26:31;;;;;;;203.68;176.95;;;14.70;93.00;;;;;;4974881;28;20137;-73
2022/08/02 04:29:00;;;;;;;345.33;308.45;;;14.60;93.10;;;;;;4973999;28;20062;-73
2022/08/02 04:31:27;;;;;;;272.83;240.93;;;14.70;93.20;;;;;;4974366;28;20061;-73
2022/08/02 04:33:54;;;;;;;282.48;250.23;;;14.70;93.30;;;;;;4974351;28;20047;-73
2022/08/02 04:36:22;;;;;;;294.52;262.52;;;14.70;93.40;;;;;;4974625;28;20169;-73
2022/08/02 04:38:49;;;;;;;294.67;260.15;;;14.70;93.50;;;;;;4975276;28;20054;-73
2022/08/02 04:41:16;;;;;;;275.17;244.40;;;14.70;93.60;;;;;;4973895;28;20061;-73
2022/08/02 04:43:43;;;;;;;287.88;256.40;;;14.60;93.70;;;;;;4974979;28;20051;-73
2022/08/02 04:46:11;;;;;;;292.73;260.90;;;14.60;93.70;;;;;;4974545;28;20079;-73
2022/08/02 04:48:38;;;;;;;269.27;239.32;;;14.60;93.80;;;;;;4973628;28;20057;-73
2022/08/02 04:51:05;;;;;;;276.40;244.05;;;14.60;93.90;;;;;;4973418;28;20509;-73
2022/08/02 04:53:32;;;;;;;257.83;221.85;;;14.60;94.00;;;;;;4974193;28;20525;-73
2022/08/02 04:55:59;;;;;;;239.35;208.38;;;14.60;94.10;;;;;;4975561;28;20110;-73
2022/08/02 04:58:26;;;;;;;220.15;184.00;;;14.60;94.30;;;;;;4973595;28;20058;-74
2022/08/02 05:00:53;;;;;;;253.02;224.20;;;14.50;94.30;;;;;;4973787;28;20047;-73
2022/08/02 05:03:21;;;;;;;265.85;234.65;;;14.60;94.40;;;;;;4989802;28;20053;-74
2022/08/02 05:05:48;;;;;;;260.38;226.05;;;14.60;94.50;;;;;;4974180;28;20055;-73
2022/08/02 05:08:15;;;;;;;249.35;214.63;;;14.50;94.60;;;;;;4974993;28;20055;-74
2022/08/02 05:10:42;;;;;;;267.27;229.20;;;14.50;94.70;;;;;;4975231;28;20150;-74
2022/08/02 05:13:09;;;;;;;279.35;243.38;;;14.60;94.80;;;;;;4990391;28;20055;-74
2022/08/02 05:15:36;;;;;;;292.65;260.35;;;14.60;94.80;;;;;;4987215;28;20047;-74
2022/08/02 05:18:03;;;;;;;257.88;225.23;;;14.60;94.90;;;;;;4993012;28;20078;-74
2022/08/02 05:20:31;;;;;;;256.27;227.98;;;14.50;95.00;;;;;;4994574;28;20161;-73
2022/08/02 05:22:58;;;;;;;254.95;224.07;;;14.50;95.10;;;;;;4993468;28;20129;-74
2022/08/02 05:25:25;;;;;;;281.20;246.55;;;14.50;95.10;;;;;;4994557;28;20079;-74
2022/08/02 05:27:52;;;;;;;268.35;234.27;;;14.50;95.20;;;;;;4994557;28;20047;-74
2022/08/02 05:30:19;;;;;;;283.50;250.77;;;14.50;95.30;;;;;;4994729;28;20078;-74
2022/08/02 05:32:47;;;;;;;323.27;286.75;;;14.60;95.30;;;;;;4992596;28;20054;-74
2022/08/02 05:35:17;;;;;;;267.40;230.75;;;14.60;95.40;;;;;;4993393;28;20536;-74
2022/08/02 05:37:45;;;;;;;271.88;235.77;;;14.60;95.50;;;;;;4994172;28;20155;-74
2022/08/02 05:40:12;;;;;;;274.60;238.90;;;14.60;95.60;;;;;;4992983;28;20046;-74
2022/08/02 05:42:39;;;;;;;278.83;241.48;;;14.60;95.60;;;;;;4994327;28;20069;-74
2022/08/02 05:45:07;;;;;;;344.77;306.83;;;14.70;95.70;;;;;;4992814;28;20051;-74
2022/08/02 05:47:34;;;;;;;346.88;309.48;;;14.70;95.80;;;;;;4993595;28;20055;-74
2022/08/02 05:50:05;;;;;;;334.48;297.90;;;14.70;95.90;;;;;;4977596;28;20051;-74
2022/08/02 05:52:41;;;;;;;346.33;308.85;;;14.70;96.00;;;;;;4974598;28;20059;-74
2022/08/02 05:55:13;;;;;;;351.77;312.95;;;14.70;95.90;;;;;;4973354;28;20043;-74
2022/08/02 05:57:50;;;;;;;321.67;286.48;;;14.80;96.00;;;;;;4972953;28;20468;-74
2022/08/02 06:00:17;;;;;;;327.00;286.80;;;14.80;96.10;;;;;;4957408;28;20047;-74
2022/08/02 06:03:15;;;;;;;325.90;287.02;;;14.90;96.10;;;;;;4974441;28;20126;-74
2022/08/02 06:05:50;;;;;;;310.27;267.92;;;14.90;96.20;;;;;;4954925;28;20083;-74
2022/08/02 06:08:20;;;;;;;346.20;308.10;;;15.00;96.10;;;;;;4973874;28;20082;-74
2022/08/02 06:10:50;;;;;;;350.73;312.45;;;15.10;96.20;;;;;;4973039;28;20063;-74
2022/08/02 06:13:18;;;;;;;367.73;328.35;;;15.10;96.20;;;;;;4972838;28;20063;-74
2022/08/02 06:15:45;;;;;;;197.88;171.68;;;15.10;96.30;;;;;;4981269;28;20051;-74
2022/08/02 06:18:12;;;;;;;326.02;290.23;;;15.20;96.30;;;;;;4990954;28;20512;-74
2022/08/02 06:20:40;;;;;;;347.00;309.75;;;15.30;96.40;;;;;;4992939;28;20054;-74
2022/08/02 06:23:08;;;;;;;339.65;303.25;;;15.30;96.40;;;;;;4988453;28;20126;-74
2022/08/02 06:25:37;;;;;;;324.88;289.70;;;15.30;96.50;;;;;;4991556;28;20086;-74
2022/08/02 06:28:06;;;;;;;327.58;292.02;;;15.40;96.60;;;;;;4992232;28;20074;-75
2022/08/02 06:30:34;;;;;;;314.33;280.02;;;15.50;96.60;;;;;;5005595;28;20050;-74
2022/08/02 06:33:02;;;;;;;313.20;279.42;;;15.60;96.60;;;;;;4992618;28;20051;-74
2022/08/02 06:35:37;;;;;;;308.80;275.20;;;15.70;96.60;;;;;;4990880;28;20235;-74
2022/08/02 06:38:04;;;;;;;287.13;255.55;;;15.70;96.60;;;;;;5007356;28;20043;-74
2022/08/02 06:40:35;;;;;;;294.75;263.42;;;15.80;96.70;;;;;;4972657;28;20053;-74
2022/08/02 06:43:22;;;;;;;361.55;324.13;;;15.80;96.70;;;;;;5008148;28;20053;-75
2022/08/02 06:45:50;;;;;;;284.38;253.13;;;15.90;96.70;;;;;;4981634;28;20081;-74
2022/08/02 06:48:17;;;;;;;328.48;293.20;;;16.00;96.60;;;;;;4992919;28;20130;-74
2022/08/02 06:50:44;;;;;;;214.52;189.60;;;16.10;96.80;;;;;;4991490;28;20164;-74
2022/08/02 06:53:11;;;;;;;378.30;339.20;;;16.10;96.50;;;;;;5007312;28;20078;-74
2022/08/02 06:55:38;;;;;;;355.13;318.40;;;16.20;96.50;;;;;;4991169;28;20519;-74
2022/08/02 06:58:05;;;;;;;356.15;319.35;;;16.30;96.50;;;;;;5006044;28;20057;-74
2022/08/02 07:00:34;;;;;;;333.42;298.98;;;16.30;96.50;;;;;;4992603;28;20046;-74
2022/08/02 07:03:01;;;;;;;346.15;310.67;;;16.40;96.50;;;;;;4990992;28;20134;-73
2022/08/02 07:05:28;;;;;;;308.23;275.98;;;16.40;96.40;;;;;;4992440;28;20054;-75
2022/08/02 07:07:56;;;;;;;259.73;232.27;;;16.60;96.50;;;;;;4990922;28;20054;-73
2022/08/02 07:10:23;;;;;;;272.90;244.32;;;16.60;96.30;;;;;;4992738;28;20047;-74
2022/08/02 07:12:50;;;;;;;298.48;267.50;;;16.70;96.30;;;;;;5007441;28;20054;-74
2022/08/02 07:15:17;;;;;;;273.88;245.48;;;16.80;96.20;;;;;;5010706;28;20109;-74
2022/08/02 07:17:48;;;;;;;268.67;240.75;;;16.90;96.30;;;;;;5010553;28;20145;-74
2022/08/02 07:20:16;;;;;;;262.27;235.30;;;16.90;96.20;;;;;;5010523;28;20464;-74
2022/08/02 07:22:42;;;;;;;314.98;282.63;;;17.00;96.20;;;;;;4995587;28;20059;-73
2022/08/02 07:25:10;;;;;;;282.45;253.23;;;17.10;96.10;;;;;;4977111;28;20101;-73
2022/08/02 07:27:37;;;;;;;303.80;272.60;;;17.10;96.00;;;;;;4991939;28;20043;-73
2022/08/02 07:30:05;;;;;;;287.48;257.42;;;17.20;95.80;;;;;;5007265;28;20402;-74
2022/08/02 07:32:32;;;;;;;323.80;291.08;;;17.30;95.40;;;;;;5008763;28;20051;-74
2022/08/02 07:35:01;;;;;;;352.52;317.52;;;17.30;95.30;;;;;;4993611;28;20086;-73
2022/08/02 07:37:32;;;;;;;354.95;319.67;;;17.40;95.30;;;;;;4991642;28;20050;-75
2022/08/02 07:39:59;;;;;;;344.52;310.33;;;17.40;95.20;;;;;;4993029;28;20069;-75
2022/08/02 07:42:29;;;;;;;345.08;310.27;;;17.50;95.10;;;;;;5012755;28;20133;-73
2022/08/02 07:44:56;;;;;;;378.95;342.20;;;17.60;95.00;;;;;;5009080;28;20051;-73
2022/08/02 07:47:23;;;;;;;385.10;347.85;;;17.60;95.00;;;;;;5010205;28;20055;-73
2022/08/02 07:49:50;;;;;;;385.23;348.10;;;17.70;94.80;;;;;;5010808;28;20517;-74
2022/08/02 07:52:19;;;;;;;381.08;344.30;;;17.80;94.60;;;;;;4995231;28;20599;-74
2022/08/02 07:54:46;;;;;;;366.23;330.48;;;17.90;94.50;;;;;;5010041;28;20390;-74
2022/08/02 07:57:13;;;;;;;351.40;317.02;;;18.00;94.40;;;;;;4995095;28;20059;-75
2022/08/02 07:59:40;;;;;;;322.10;289.98;;;18.00;94.40;;;;;;5010616;28;20051;-75
2022/08/02 08:02:08;;;;;;;314.63;284.20;;;18.10;94.10;;;;;;4995461;28;20062;-75
2022/08/02 08:04:35;;;;;;;346.27;313.27;;;18.20;94.20;;;;;;4990080;28;20106;-75
2022/08/02 08:07:03;;;;;;;363.15;328.38;;;18.30;94.40;;;;;;4994518;28;20082;-74
2022/08/02 08:09:31;;;;;;;342.05;309.77;;;18.40;94.30;;;;;;5010372;28;20489;-74
2022/08/02 08:11:58;;;;;;;348.50;315.42;;;18.50;94.20;;;;;;4994618;28;20066;-73
2022/08/02 08:14:25;;;;;;;351.15;317.60;;;18.60;93.80;;;;;;4990768;28;20053;-73
2022/08/02 08:16:52;;;;;;;351.10;317.98;;;18.70;93.60;;;;;;4993028;28;20134;-74
2022/08/02 08:19:19;;;;;;;368.48;334.33;;;18.80;93.30;;;;;;5008377;28;20047;-74
2022/08/02 08:21:46;;;;;;;371.23;336.55;;;18.90;92.50;;;;;;4992728;28;20062;-73
2022/08/02 08:24:13;;;;;;;362.05;328.35;;;19.00;92.60;;;;;;4976393;28;20054;-72
2022/08/02 08:26:41;;;;;;;369.08;334.55;;;19.00;92.20;;;;;;4976827;28;20057;-72
2022/08/02 08:29:08;;;;;;;361.38;327.30;;;19.10;91.70;;;;;;5009658;28;20061;-72
2022/08/02 08:31:35;;;;;;;363.92;330.05;;;19.20;91.50;;;;;;4991766;28;20150;-73
2022/08/02 08:34:04;;;;;;;354.65;321.70;;;19.30;91.20;;;;;;5009707;28;20078;-73
2022/08/02 08:36:31;;;;;;;336.95;305.17;;;19.40;90.50;;;;;;5005859;28;20058;-75
2022/08/02 08:38:59;;;;;;;341.42;309.75;;;19.50;90.40;;;;;;5009346;28;20114;-77
2022/08/02 08:41:26;;;;;;;338.73;307.55;;;19.50;90.60;;;;;;4994332;28;20054;-75
2022/08/02 08:43:54;;;;;;;339.42;308.67;;;19.60;90.60;;;;;;5008865;28;20055;-75
2022/08/02 08:46:27;;;;;;;351.65;319.65;;;19.70;89.80;;;;;;4977021;28;20074;-74
2022/08/02 08:49:12;;;;;;;356.40;323.90;;;19.80;89.20;;;;;;4991574;28;20583;-73
2022/08/02 08:51:42;;;;;;;;;;;19.90;89.20;;;;;;4996589;28;20061;-74
2022/08/02 08:54:15;;;;;;;336.40;304.92;;;19.90;89.00;;;;;;5003880;28;19977;-74
2022/08/02 08:56:43;;;;;;;339.93;308.80;;;20.00;89.00;;;;;;4994436;28;20805;-72
2022/08/02 08:59:11;;;;;;;348.27;316.83;;;20.10;88.20;;;;;;5008450;28;20050;-73
2022/08/02 09:01:39;;;;;;;346.50;315.60;;;20.20;85.60;;;;;;5008708;28;20047;-73
2022/08/02 09:04:06;;;;;;;347.08;316.13;;;20.30;85.10;;;;;;4992106;28;20142;-73
2022/08/02 09:06:32;;;;;;;393.85;359.50;;;20.30;85.10;;;;;;4993858;28;20138;-73
2022/08/02 09:08:59;;;;;;;429.20;392.90;;;20.40;84.60;;;;;;4987872;28;20051;-73
2022/08/02 09:11:26;;;;;;;393.48;359.27;;;20.50;84.70;;;;;;4990653;28;20086;-74
2022/08/02 09:13:55;;;;;;;374.23;341.42;;;20.60;84.60;;;;;;4987769;28;20496;-73
2022/08/02 09:16:31;;;;;;;370.40;337.85;;;20.70;85.20;;;;;;4993826;28;20058;-75
2022/08/02 09:18:59;;;;;;;380.52;347.35;;;20.80;84.40;;;;;;5006999;28;20157;-74
2022/08/02 09:21:36;;;;;;;372.85;340.27;;;20.90;84.80;;;;;;5009272;28;20058;-74
2022/08/02 09:24:03;;;;;;;362.50;331.23;;;21.00;84.80;;;;;;4992152;28;21033;-74
2022/08/02 09:26:30;;;;;;;369.13;337.50;;;21.10;82.40;;;;;;4992665;28;20054;-74
2022/08/02 09:29:02;;;;;;;382.05;349.52;;;21.20;80.60;;;;;;4992279;28;20473;-74
2022/08/02 09:31:33;;;;;;;372.13;340.25;;;21.30;80.30;;;;;;4990154;28;20561;-74
2022/08/02 09:34:01;;;;;;;375.75;343.55;;;21.40;80.70;;;;;;4991597;28;20047;-74
2022/08/02 09:36:37;;;;;;;414.27;379.85;;;21.50;80.90;;;;;;5002255;28;20047;-73
2022/08/02 09:39:05;;;;;;;406.08;372.25;;;21.60;81.00;;;;;;4989451;28;20047;-73
2022/08/02 09:41:34;;;;;;;383.30;350.95;;;21.70;80.20;;;;;;4983284;28;20515;-73
2022/08/02 09:44:03;;;;;;;391.10;358.40;;;21.80;81.00;;;;;;5005272;28;20055;-73
2022/08/02 09:46:36;;;;;;;422.83;388.35;;;21.90;81.50;;;;;;4990316;28;20055;-73
2022/08/02 09:49:04;;;;;;;386.75;354.50;;;21.90;82.30;;;;;;5002992;28;20054;-73
2022/08/02 09:51:33;;;;;;;397.45;364.45;;;22.10;82.30;;;;;;5006369;28;20112;-73
2022/08/02 09:54:02;;;;;;;386.67;354.48;;;22.10;81.60;;;;;;4986891;28;20059;-74
2022/08/02 09:56:40;;;;;;;369.55;338.88;;;22.20;81.50;;;;;;4989511;28;20039;-74
2022/08/02 09:59:08;;;;;;;369.42;339.02;;;22.40;81.60;;;;;;5005401;28;20061;-74
2022/08/02 10:01:38;;;;;;;394.10;361.60;;;22.40;81.30;;;;;;4990253;28;20055;-74
2022/08/02 10:04:06;;;;;;;389.83;357.23;;;22.50;82.20;;;;;;4991486;28;20098;-74
2022/08/02 10:06:34;;;;;;;382.75;351.33;;;22.50;83.10;;;;;;4993000;28;20098;-73
2022/08/02 10:09:01;;;;;;;397.80;365.60;;;22.70;82.60;;;;;;5005486;28;20200;-74
2022/08/02 10:11:28;;;;;;;432.05;398.05;;;22.70;82.30;;;;;;5008541;28;20051;-74
2022/08/02 10:13:56;;;;;;;429.33;395.40;;;22.80;82.00;;;;;;4990874;28;20590;-74
2022/08/02 10:16:24;;;;;;;404.70;372.35;;;22.90;82.50;;;;;;5008159;28;20548;-74
2022/08/02 10:18:54;;;;;;;456.60;421.42;;;23.00;82.40;;;;;;5003499;28;20062;-74
2022/08/02 10:21:28;;;;;;;458.98;423.73;;;23.00;82.40;;;;;;4989616;28;20134;-74
2022/08/02 10:24:03;;;;;;;477.88;441.65;;;23.10;82.90;;;;;;4992172;28;20138;-74
2022/08/02 10:26:31;;;;;;;501.88;464.30;;;23.20;82.70;;;;;;4992603;28;20170;-74
2022/08/02 10:28:58;;;;;;;474.42;438.67;;;23.30;82.80;;;;;;4992239;28;20062;-74
2022/08/02 10:31:30;;;;;;;503.63;466.30;;;23.40;83.10;;;;;;4992054;28;20082;-73
2022/08/02 10:34:01;;;;;;;407.70;375.60;;;23.50;82.90;;;;;;4992516;28;20058;-74
2022/08/02 10:36:31;;;;;;;409.35;377.35;;;23.60;82.30;;;;;;5007627;28;20405;-74
2022/08/02 10:38:59;;;;;;;464.52;429.17;;;23.60;82.30;;;;;;5006036;28;20058;-74
2022/08/02 10:41:46;;;;;;;466.00;430.67;;;23.70;82.00;;;;;;5007703;28;20446;-75
2022/08/02 10:44:28;;;;;;;484.52;448.25;;;23.70;82.00;;;;;;4991663;28;20051;-74
2022/08/02 10:47:20;;;;;;;465.67;430.73;;;23.80;81.60;;;;;;5001169;28;20141;-74
2022/08/02 10:49:53;;;;;;;479.30;443.55;;;23.80;80.50;;;;;;4993761;28;20154;-74
2022/08/02 10:52:21;;;;;;;503.10;465.50;;;24.00;81.20;;;;;;5010846;28;20137;-74
2022/08/02 10:54:50;;;;;;;591.15;549.50;;;24.00;81.40;;;;;;4993159;28;20051;-77
2022/08/02 10:57:20;;;;;;;544.80;505.77;;;24.00;80.70;;;;;;4996359;28;20132;-77
2022/08/02 10:59:48;;;;;;;647.15;602.28;;;24.20;80.30;;;;;;4995161;28;20054;-77
2022/08/02 11:02:34;;;;;;;660.03;615.38;;;24.20;80.40;;;;;;4996203;28;20114;-76
2022/08/02 11:05:09;;;;;;;549.67;510.33;;;24.30;79.20;;;;;;5011027;28;20054;-76
2022/08/02 11:07:37;;;;;;;515.38;478.08;;;24.30;78.80;;;;;;5010559;28;20130;-78
2022/08/02 11:10:29;;;;;;;551.53;512.33;;;24.40;80.20;;;;;;4995026;28;20061;-76
2022/08/02 11:13:05;;;;;;;469.30;434.45;;;24.50;80.40;;;;;;4995270;28;20173;-76
2022/08/02 11:15:49;;;;;;;630.55;587.25;;;24.50;78.70;;;;;;4978084;28;20051;-74
2022/08/02 11:18:16;;;;;;;543.25;504.98;;;24.60;78.60;;;;;;4977434;28;20047;-73
2022/08/02 11:20:45;;;;;;;482.23;447.23;;;24.60;77.90;;;;;;4995186;28;20153;-73
2022/08/02 11:23:35;;;;;;;561.10;521.35;;;24.60;77.80;;;;;;4995055;28;20080;-73
2022/08/02 11:26:04;;;;;;;606.03;563.40;;;24.70;78.20;;;;;;4989567;28;20566;-74
2022/08/02 11:28:31;;;;;;;676.90;631.28;;;24.70;78.50;;;;;;4983495;28;20043;-75
2022/08/02 11:30:59;;;;;;;624.05;580.88;;;24.80;78.50;;;;;;5008838;28;20047;-76
2022/08/02 11:33:34;;;;;;;682.75;637.67;;;24.80;78.30;;;;;;4993523;28;20141;-75
2022/08/02 11:36:05;;;;;;;685.38;639.50;;;24.90;76.40;;;;;;5008594;28;20051;-74
2022/08/02 11:38:32;;;;;;;664.75;619.10;;;24.90;76.80;;;;;;4992104;28;20047;-76
2022/08/02 11:41:02;;;;;;;694.47;648.20;;;25.00;77.20;;;;;;4994189;28;20059;-75
2022/08/02 11:43:29;;;;;;;667.75;622.47;;;25.00;74.90;;;;;;4994622;28;20047;-72
2022/08/02 11:45:56;;;;;;;720.47;672.42;;;25.10;74.80;;;;;;4993494;28;20057;-73
2022/08/02 11:48:33;;;;;;;688.55;642.83;;;25.10;75.90;;;;;;4994058;28;20054;-73
2022/08/02 11:51:09;;;;;;;699.58;653.72;;;25.10;75.60;;;;;;4994391;28;20421;-72
2022/08/02 11:53:44;;;;;;;743.85;696.13;;;25.10;75.90;;;;;;4995849;28;20058;-73
2022/08/02 11:56:12;;;;;;;712.35;665.80;;;25.20;76.20;;;;;;4993228;28;20135;-73
2022/08/02 11:58:39;;;;;;;692.13;646.95;;;25.20;75.50;;;;;;4992942;28;20053;-72
2022/08/02 12:01:06;;;;;;;678.15;632.55;;;25.20;75.80;;;;;;4995162;28;20061;-73
2022/08/02 12:03:35;;;;;;;766.78;718.10;;;25.20;76.40;;;;;;4979377;28;20138;-73
2022/08/02 12:06:04;;;;;;;762.90;714.95;;;25.20;76.80;;;;;;4974978;28;20053;-72
2022/08/02 12:08:32;;;;;;;744.45;696.70;;;25.20;77.30;;;;;;4973763;28;20126;-72
2022/08/02 12:11:01;;;;;;;781.10;732.45;;;25.30;77.60;;;;;;4982499;28;20047;-73
2022/08/02 12:13:41;;;;;;;820.88;770.33;;;25.30;76.50;;;;;;5010338;28;20077;-74
2022/08/02 12:21:35;;;;;;;613.65;571.70;;;25.40;76.00;;;;;;4975524;28;20074;-78
2022/08/02 12:24:04;;;;;;;586.53;546.03;;;25.50;75.20;;;;;;4994511;28;20058;-78
2022/08/02 12:26:40;;;;;;;573.92;533.55;;;25.50;75.30;;;;;;4976675;28;20134;-77
2022/08/02 12:29:07;;;;;;;611.35;570.15;;;25.50;75.40;;;;;;5009712;28;20059;-77
2022/08/02 12:31:43;;;;;;;528.47;491.00;;;25.50;74.50;;;;;;5009535;28;20054;-73